Terminal Aerodrome Forecast
Issued by NWS

Home | Current Version | Previous Version | Text Only | Print | Product List | Glossary On
Versions: 1 2 3 4 5 6 7 8 9 10 11 12
725
FTUS46 KSGX 010520
TAFSNA
TAF
KSNA 010520Z 0106/0206 VRB04KT P6SM FEW006
     FM011900 22010KT P6SM SKC
     FM020100 VRB04KT P6SM SKC=

USA.gov is the U.S. government's official web portal to all federal, state and local government web resources and services.